sensor_id;sensor_type;location;lat;lon;timestamp;P1;durP1;ratioP1;P2;durP2;ratioP2
55292;SDS011;41157;53.560;10.098;2023-03-11T00:01:21;7.60;;;5.83;;
55292;SDS011;41157;53.560;10.098;2023-03-11T00:03:48;10.77;;;6.90;;
55292;SDS011;41157;53.560;10.098;2023-03-11T00:06:16;10.07;;;6.40;;
55292;SDS011;41157;53.560;10.098;2023-03-11T00:08:43;9.90;;;6.60;;
55292;SDS011;41157;53.560;10.098;2023-03-11T00:11:10;7.00;;;6.30;;
55292;SDS011;41157;53.560;10.098;2023-03-11T00:13:38;10.73;;;7.00;;
55292;SDS011;41157;53.560;10.098;2023-03-11T00:16:05;12.07;;;7.50;;
55292;SDS011;41157;53.560;10.098;2023-03-11T00:18:32;10.87;;;7.73;;
55292;SDS011;41157;53.560;10.098;2023-03-11T00:21:00;11.47;;;7.50;;
55292;SDS011;41157;53.560;10.098;2023-03-11T00:23:27;9.57;;;6.90;;
55292;SDS011;41157;53.560;10.098;2023-03-11T00:25:54;8.93;;;7.57;;
55292;SDS011;41157;53.560;10.098;2023-03-11T00:28:23;9.97;;;7.50;;
55292;SDS011;41157;53.560;10.098;2023-03-11T00:30:52;11.97;;;7.73;;
55292;SDS011;41157;53.560;10.098;2023-03-11T00:33:20;10.67;;;8.63;;
55292;SDS011;41157;53.560;10.098;2023-03-11T00:35:48;10.83;;;8.33;;
55292;SDS011;41157;53.560;10.098;2023-03-11T00:38:15;12.47;;;9.03;;
55292;SDS011;41157;53.560;10.098;2023-03-11T00:40:43;11.67;;;9.60;;
55292;SDS011;41157;53.560;10.098;2023-03-11T00:43:10;11.90;;;9.80;;
55292;SDS011;41157;53.560;10.098;2023-03-11T00:45:37;14.13;;;9.43;;
55292;SDS011;41157;53.560;10.098;2023-03-11T00:48:06;12.17;;;9.57;;
55292;SDS011;41157;53.560;10.098;2023-03-11T00:50:35;12.67;;;9.20;;
55292;SDS011;41157;53.560;10.098;2023-03-11T00:53:02;11.57;;;9.50;;
55292;SDS011;41157;53.560;10.098;2023-03-11T00:55:30;13.90;;;9.50;;
55292;SDS011;41157;53.560;10.098;2023-03-11T00:57:58;13.50;;;9.90;;
55292;SDS011;41157;53.560;10.098;2023-03-11T01:00:25;11.87;;;9.23;;
55292;SDS011;41157;53.560;10.098;2023-03-11T01:02:54;11.80;;;9.70;;
55292;SDS011;41157;53.560;10.098;2023-03-11T01:05:23;16.07;;;10.67;;
55292;SDS011;41157;53.560;10.098;2023-03-11T01:07:51;13.37;;;9.77;;
55292;SDS011;41157;53.560;10.098;2023-03-11T01:10:18;13.67;;;10.30;;
55292;SDS011;41157;53.560;10.098;2023-03-11T01:12:45;15.43;;;10.73;;
55292;SDS011;41157;53.560;10.098;2023-03-11T01:15:14;14.90;;;10.53;;
55292;SDS011;41157;53.560;10.098;2023-03-11T01:17:42;14.30;;;10.50;;
55292;SDS011;41157;53.560;10.098;2023-03-11T01:20:10;14.97;;;10.50;;
55292;SDS011;41157;53.560;10.098;2023-03-11T01:22:39;14.67;;;10.77;;
55292;SDS011;41157;53.560;10.098;2023-03-11T01:25:06;14.43;;;11.03;;
55292;SDS011;41157;53.560;10.098;2023-03-11T01:27:34;16.40;;;10.47;;
55292;SDS011;41157;53.560;10.098;2023-03-11T01:30:02;13.77;;;10.57;;
55292;SDS011;41157;53.560;10.098;2023-03-11T01:32:29;14.57;;;10.60;;
55292;SDS011;41157;53.560;10.098;2023-03-11T01:34:56;15.20;;;10.40;;
55292;SDS011;41157;53.560;10.098;2023-03-11T01:37:24;15.87;;;10.67;;
55292;SDS011;41157;53.560;10.098;2023-03-11T01:39:52;12.07;;;9.93;;
55292;SDS011;41157;53.560;10.098;2023-03-11T01:42:19;15.50;;;10.73;;
55292;SDS011;41157;53.560;10.098;2023-03-11T01:44:46;12.43;;;10.13;;
55292;SDS011;41157;53.560;10.098;2023-03-11T01:49:55;13.33;;;10.47;;
55292;SDS011;41157;53.560;10.098;2023-03-11T01:52:22;15.37;;;9.80;;
55292;SDS011;41157;53.560;10.098;2023-03-11T01:54:49;11.50;;;9.27;;
55292;SDS011;41157;53.560;10.098;2023-03-11T01:57:18;14.47;;;9.53;;
55292;SDS011;41157;53.560;10.098;2023-03-11T01:59:47;14.93;;;9.60;;
55292;SDS011;41157;53.560;10.098;2023-03-11T02:02:16;14.00;;;9.83;;
55292;SDS011;41157;53.560;10.098;2023-03-11T02:04:44;13.00;;;10.23;;
55292;SDS011;41157;53.560;10.098;2023-03-11T02:07:11;12.53;;;9.90;;
55292;SDS011;41157;53.560;10.098;2023-03-11T02:09:39;12.77;;;9.93;;
55292;SDS011;41157;53.560;10.098;2023-03-11T02:12:07;13.20;;;9.57;;
55292;SDS011;41157;53.560;10.098;2023-03-11T02:14:36;12.60;;;9.17;;
55292;SDS011;41157;53.560;10.098;2023-03-11T02:17:06;11.70;;;9.03;;
55292;SDS011;41157;53.560;10.098;2023-03-11T02:19:34;11.47;;;9.50;;
55292;SDS011;41157;53.560;10.098;2023-03-11T02:22:06;16.03;;;9.50;;
55292;SDS011;41157;53.560;10.098;2023-03-11T02:24:35;13.10;;;9.77;;
55292;SDS011;41157;53.560;10.098;2023-03-11T02:27:07;15.53;;;9.03;;
55292;SDS011;41157;53.560;10.098;2023-03-11T02:29:34;12.37;;;9.23;;
55292;SDS011;41157;53.560;10.098;2023-03-11T02:32:04;12.73;;;10.40;;
55292;SDS011;41157;53.560;10.098;2023-03-11T02:34:33;13.67;;;9.43;;
55292;SDS011;41157;53.560;10.098;2023-03-11T02:37:03;12.23;;;9.27;;
55292;SDS011;41157;53.560;10.098;2023-03-11T02:39:31;11.83;;;9.13;;
55292;SDS011;41157;53.560;10.098;2023-03-11T02:41:58;16.77;;;9.67;;
55292;SDS011;41157;53.560;10.098;2023-03-11T02:44:27;10.77;;;8.80;;
55292;SDS011;41157;53.560;10.098;2023-03-11T02:46:55;11.57;;;9.30;;
55292;SDS011;41157;53.560;10.098;2023-03-11T02:49:22;14.00;;;9.27;;
55292;SDS011;41157;53.560;10.098;2023-03-11T02:51:49;12.70;;;9.77;;
55292;SDS011;41157;53.560;10.098;2023-03-11T02:54:16;14.17;;;9.20;;
55292;SDS011;41157;53.560;10.098;2023-03-11T02:56:43;12.63;;;9.97;;
55292;SDS011;41157;53.560;10.098;2023-03-11T02:59:10;14.40;;;9.23;;
55292;SDS011;41157;53.560;10.098;2023-03-11T03:01:39;12.00;;;9.20;;
55292;SDS011;41157;53.560;10.098;2023-03-11T03:04:06;12.23;;;9.23;;
55292;SDS011;41157;53.560;10.098;2023-03-11T03:06:33;11.27;;;9.07;;
55292;SDS011;41157;53.560;10.098;2023-03-11T03:09:00;13.30;;;9.37;;
55292;SDS011;41157;53.560;10.098;2023-03-11T03:11:27;12.23;;;9.03;;
55292;SDS011;41157;53.560;10.098;2023-03-11T03:13:54;12.03;;;9.40;;
55292;SDS011;41157;53.560;10.098;2023-03-11T03:16:21;12.17;;;9.13;;
55292;SDS011;41157;53.560;10.098;2023-03-11T03:18:49;12.03;;;8.83;;
55292;SDS011;41157;53.560;10.098;2023-03-11T03:21:17;11.00;;;8.80;;
55292;SDS011;41157;53.560;10.098;2023-03-11T03:23:44;11.63;;;8.80;;
55292;SDS011;41157;53.560;10.098;2023-03-11T03:26:11;11.00;;;8.27;;
55292;SDS011;41157;53.560;10.098;2023-03-11T03:28:38;11.43;;;8.17;;
55292;SDS011;41157;53.560;10.098;2023-03-11T03:31:06;11.87;;;7.73;;
55292;SDS011;41157;53.560;10.098;2023-03-11T03:33:33;10.70;;;8.40;;
55292;SDS011;41157;53.560;10.098;2023-03-11T03:36:05;9.57;;;7.70;;
55292;SDS011;41157;53.560;10.098;2023-03-11T03:38:33;11.70;;;7.80;;
55292;SDS011;41157;53.560;10.098;2023-03-11T03:41:00;11.97;;;7.80;;
55292;SDS011;41157;53.560;10.098;2023-03-11T03:43:27;9.13;;;7.27;;
55292;SDS011;41157;53.560;10.098;2023-03-11T03:45:54;11.63;;;7.70;;
55292;SDS011;41157;53.560;10.098;2023-03-11T03:48:21;9.67;;;7.40;;
55292;SDS011;41157;53.560;10.098;2023-03-11T03:50:48;9.47;;;7.73;;
55292;SDS011;41157;53.560;10.098;2023-03-11T03:53:17;9.90;;;7.80;;
55292;SDS011;41157;53.560;10.098;2023-03-11T03:55:44;9.10;;;7.67;;
55292;SDS011;41157;53.560;10.098;2023-03-11T03:58:11;13.03;;;9.10;;
55292;SDS011;41157;53.560;10.098;2023-03-11T04:00:38;8.43;;;7.53;;
55292;SDS011;41157;53.560;10.098;2023-03-11T04:03:05;12.63;;;8.37;;
55292;SDS011;41157;53.560;10.098;2023-03-11T04:05:32;10.63;;;8.13;;
55292;SDS011;41157;53.560;10.098;2023-03-11T04:08:00;16.00;;;8.60;;
55292;SDS011;41157;53.560;10.098;2023-03-11T04:10:28;11.77;;;8.47;;
55292;SDS011;41157;53.560;10.098;2023-03-11T04:12:56;11.73;;;8.83;;
55292;SDS011;41157;53.560;10.098;2023-03-11T04:15:23;10.57;;;8.50;;
55292;SDS011;41157;53.560;10.098;2023-03-11T04:17:50;13.10;;;8.87;;
55292;SDS011;41157;53.560;10.098;2023-03-11T04:20:17;10.50;;;8.40;;
55292;SDS011;41157;53.560;10.098;2023-03-11T04:22:44;10.90;;;7.90;;
55292;SDS011;41157;53.560;10.098;2023-03-11T04:25:11;9.33;;;7.77;;
55292;SDS011;41157;53.560;10.098;2023-03-11T04:27:40;9.43;;;7.97;;
55292;SDS011;41157;53.560;10.098;2023-03-11T04:30:10;11.30;;;8.13;;
55292;SDS011;41157;53.560;10.098;2023-03-11T04:32:37;13.03;;;7.80;;
55292;SDS011;41157;53.560;10.098;2023-03-11T04:35:05;8.87;;;7.70;;
55292;SDS011;41157;53.560;10.098;2023-03-11T04:37:32;10.03;;;7.80;;
55292;SDS011;41157;53.560;10.098;2023-03-11T04:39:59;10.67;;;7.47;;
55292;SDS011;41157;53.560;10.098;2023-03-11T04:42:26;12.53;;;7.60;;
55292;SDS011;41157;53.560;10.098;2023-03-11T04:44:54;15.63;;;7.73;;
55292;SDS011;41157;53.560;10.098;2023-03-11T04:47:21;9.47;;;6.83;;
55292;SDS011;41157;53.560;10.098;2023-03-11T04:49:49;9.63;;;7.73;;
55292;SDS011;41157;53.560;10.098;2023-03-11T04:52:16;13.03;;;8.20;;
55292;SDS011;41157;53.560;10.098;2023-03-11T04:54:43;8.93;;;7.73;;
55292;SDS011;41157;53.560;10.098;2023-03-11T04:57:10;11.60;;;8.00;;
55292;SDS011;41157;53.560;10.098;2023-03-11T04:59:37;11.20;;;7.77;;
55292;SDS011;41157;53.560;10.098;2023-03-11T05:02:05;10.40;;;8.23;;
55292;SDS011;41157;53.560;10.098;2023-03-11T05:04:33;11.00;;;8.03;;
55292;SDS011;41157;53.560;10.098;2023-03-11T05:07:00;10.60;;;8.23;;
55292;SDS011;41157;53.560;10.098;2023-03-11T05:09:27;10.27;;;7.93;;
55292;SDS011;41157;53.560;10.098;2023-03-11T05:11:54;13.70;;;7.97;;
55292;SDS011;41157;53.560;10.098;2023-03-11T05:14:21;10.03;;;8.23;;
55292;SDS011;41157;53.560;10.098;2023-03-11T05:16:48;10.93;;;8.30;;
55292;SDS011;41157;53.560;10.098;2023-03-11T05:19:16;10.87;;;8.30;;
55292;SDS011;41157;53.560;10.098;2023-03-11T05:21:56;13.87;;;8.40;;
55292;SDS011;41157;53.560;10.098;2023-03-11T05:24:23;10.97;;;8.50;;
55292;SDS011;41157;53.560;10.098;2023-03-11T05:26:50;10.83;;;8.17;;
55292;SDS011;41157;53.560;10.098;2023-03-11T05:29:17;10.80;;;8.50;;
55292;SDS011;41157;53.560;10.098;2023-03-11T05:31:44;10.83;;;8.87;;
55292;SDS011;41157;53.560;10.098;2023-03-11T05:34:11;11.93;;;9.00;;
55292;SDS011;41157;53.560;10.098;2023-03-11T05:36:40;11.13;;;8.47;;
55292;SDS011;41157;53.560;10.098;2023-03-11T05:39:07;13.27;;;9.20;;
55292;SDS011;41157;53.560;10.098;2023-03-11T05:41:34;11.00;;;8.50;;
55292;SDS011;41157;53.560;10.098;2023-03-11T05:44:01;11.40;;;8.20;;
55292;SDS011;41157;53.560;10.098;2023-03-11T05:46:28;13.10;;;8.87;;
55292;SDS011;41157;53.560;10.098;2023-03-11T05:48:56;12.03;;;8.20;;
55292;SDS011;41157;53.560;10.098;2023-03-11T05:51:24;10.57;;;8.40;;
55292;SDS011;41157;53.560;10.098;2023-03-11T05:53:53;12.03;;;8.77;;
55292;SDS011;41157;53.560;10.098;2023-03-11T05:56:21;12.03;;;8.00;;
55292;SDS011;41157;53.560;10.098;2023-03-11T05:58:48;12.80;;;8.53;;
55292;SDS011;41157;53.560;10.098;2023-03-11T06:01:16;11.53;;;8.17;;
55292;SDS011;41157;53.560;10.098;2023-03-11T06:03:43;14.30;;;7.83;;
55292;SDS011;41157;53.560;10.098;2023-03-11T06:06:11;10.17;;;7.83;;
55292;SDS011;41157;53.560;10.098;2023-03-11T06:08:38;10.93;;;8.20;;
55292;SDS011;41157;53.560;10.098;2023-03-11T06:11:11;11.87;;;7.47;;
55292;SDS011;41157;53.560;10.098;2023-03-11T06:13:38;10.87;;;8.20;;
55292;SDS011;41157;53.560;10.098;2023-03-11T06:16:05;9.97;;;7.80;;
55292;SDS011;41157;53.560;10.098;2023-03-11T06:18:33;12.00;;;8.73;;
55292;SDS011;41157;53.560;10.098;2023-03-11T06:21:00;10.20;;;7.67;;
55292;SDS011;41157;53.560;10.098;2023-03-11T06:23:28;9.40;;;7.20;;
55292;SDS011;41157;53.560;10.098;2023-03-11T06:25:55;11.93;;;8.20;;
55292;SDS011;41157;53.560;10.098;2023-03-11T06:28:24;11.43;;;7.90;;
55292;SDS011;41157;53.560;10.098;2023-03-11T06:30:51;15.07;;;8.00;;
55292;SDS011;41157;53.560;10.098;2023-03-11T06:33:20;10.37;;;7.90;;
55292;SDS011;41157;53.560;10.098;2023-03-11T06:35:54;11.20;;;6.87;;
55292;SDS011;41157;53.560;10.098;2023-03-11T06:38:21;11.43;;;7.13;;
55292;SDS011;41157;53.560;10.098;2023-03-11T06:40:48;12.27;;;7.17;;
55292;SDS011;41157;53.560;10.098;2023-03-11T06:43:15;12.27;;;7.90;;
55292;SDS011;41157;53.560;10.098;2023-03-11T06:45:44;19.30;;;11.87;;
55292;SDS011;41157;53.560;10.098;2023-03-11T06:48:11;62.30;;;31.27;;
55292;SDS011;41157;53.560;10.098;2023-03-11T06:50:38;59.20;;;29.27;;
55292;SDS011;41157;53.560;10.098;2023-03-11T06:53:05;60.07;;;31.70;;
55292;SDS011;41157;53.560;10.098;2023-03-11T06:55:32;40.50;;;22.97;;
55292;SDS011;41157;53.560;10.098;2023-03-11T06:58:00;15.83;;;10.10;;
55292;SDS011;41157;53.560;10.098;2023-03-11T07:00:27;13.13;;;7.80;;
55292;SDS011;41157;53.560;10.098;2023-03-11T07:02:56;8.93;;;7.23;;
55292;SDS011;41157;53.560;10.098;2023-03-11T07:05:23;13.90;;;7.37;;
55292;SDS011;41157;53.560;10.098;2023-03-11T07:07:52;9.80;;;7.30;;
55292;SDS011;41157;53.560;10.098;2023-03-11T07:10:19;10.73;;;7.30;;
55292;SDS011;41157;53.560;10.098;2023-03-11T07:12:46;10.73;;;7.90;;
55292;SDS011;41157;53.560;10.098;2023-03-11T07:15:13;11.30;;;7.60;;
55292;SDS011;41157;53.560;10.098;2023-03-11T07:17:40;9.60;;;7.23;;
55292;SDS011;41157;53.560;10.098;2023-03-11T07:20:09;10.53;;;6.97;;
55292;SDS011;41157;53.560;10.098;2023-03-11T07:22:37;8.97;;;7.00;;
55292;SDS011;41157;53.560;10.098;2023-03-11T07:25:09;10.63;;;7.20;;
55292;SDS011;41157;53.560;10.098;2023-03-11T07:27:42;8.83;;;6.70;;
55292;SDS011;41157;53.560;10.098;2023-03-11T07:30:09;8.20;;;6.67;;
55292;SDS011;41157;53.560;10.098;2023-03-11T07:32:36;11.10;;;7.33;;
55292;SDS011;41157;53.560;10.098;2023-03-11T07:35:04;8.80;;;6.83;;
55292;SDS011;41157;53.560;10.098;2023-03-11T07:37:32;140.20;;;23.20;;
55292;SDS011;41157;53.560;10.098;2023-03-11T07:39:59;11.17;;;7.87;;
55292;SDS011;41157;53.560;10.098;2023-03-11T07:42:26;8.03;;;6.47;;
55292;SDS011;41157;53.560;10.098;2023-03-11T07:44:53;9.90;;;6.87;;
55292;SDS011;41157;53.560;10.098;2023-03-11T07:47:20;8.60;;;6.53;;
55292;SDS011;41157;53.560;10.098;2023-03-11T07:49:48;8.03;;;6.10;;
55292;SDS011;41157;53.560;10.098;2023-03-11T07:52:15;9.03;;;6.10;;
55292;SDS011;41157;53.560;10.098;2023-03-11T07:54:44;8.47;;;6.27;;
55292;SDS011;41157;53.560;10.098;2023-03-11T07:57:11;7.40;;;5.87;;
55292;SDS011;41157;53.560;10.098;2023-03-11T07:59:41;7.73;;;5.70;;
55292;SDS011;41157;53.560;10.098;2023-03-11T08:02:08;6.60;;;5.40;;
55292;SDS011;41157;53.560;10.098;2023-03-11T08:04:36;5.73;;;5.13;;
55292;SDS011;41157;53.560;10.098;2023-03-11T08:07:03;9.03;;;5.67;;
55292;SDS011;41157;53.560;10.098;2023-03-11T08:09:30;8.77;;;5.50;;
55292;SDS011;41157;53.560;10.098;2023-03-11T08:11:58;6.33;;;5.00;;
55292;SDS011;41157;53.560;10.098;2023-03-11T08:14:25;6.43;;;5.07;;
55292;SDS011;41157;53.560;10.098;2023-03-11T08:16:52;6.13;;;4.80;;
55292;SDS011;41157;53.560;10.098;2023-03-11T08:19:19;21.87;;;7.43;;
55292;SDS011;41157;53.560;10.098;2023-03-11T08:21:46;6.13;;;4.70;;
55292;SDS011;41157;53.560;10.098;2023-03-11T08:24:13;5.37;;;4.83;;
55292;SDS011;41157;53.560;10.098;2023-03-11T08:26:41;6.00;;;4.27;;
55292;SDS011;41157;53.560;10.098;2023-03-11T08:29:09;6.70;;;4.30;;
55292;SDS011;41157;53.560;10.098;2023-03-11T08:31:36;5.23;;;4.47;;
55292;SDS011;41157;53.560;10.098;2023-03-11T08:34:05;9.10;;;3.87;;
55292;SDS011;41157;53.560;10.098;2023-03-11T08:36:32;5.47;;;3.97;;
55292;SDS011;41157;53.560;10.098;2023-03-11T08:39:00;5.90;;;4.10;;
55292;SDS011;41157;53.560;10.098;2023-03-11T08:41:27;6.83;;;4.10;;
55292;SDS011;41157;53.560;10.098;2023-03-11T08:43:54;5.43;;;3.93;;
55292;SDS011;41157;53.560;10.098;2023-03-11T08:46:23;5.73;;;3.50;;
55292;SDS011;41157;53.560;10.098;2023-03-11T08:48:50;4.47;;;3.37;;
55292;SDS011;41157;53.560;10.098;2023-03-11T08:51:18;4.60;;;3.47;;
55292;SDS011;41157;53.560;10.098;2023-03-11T08:53:45;4.73;;;3.40;;
55292;SDS011;41157;53.560;10.098;2023-03-11T08:56:12;8.53;;;3.30;;
55292;SDS011;41157;53.560;10.098;2023-03-11T08:58:39;5.40;;;3.00;;
55292;SDS011;41157;53.560;10.098;2023-03-11T09:01:06;4.87;;;3.43;;
55292;SDS011;41157;53.560;10.098;2023-03-11T09:03:35;10.25;;;2.88;;
55292;SDS011;41157;53.560;10.098;2023-03-11T09:06:03;6.38;;;2.90;;
55292;SDS011;41157;53.560;10.098;2023-03-11T09:08:31;6.88;;;3.30;;
55292;SDS011;41157;53.560;10.098;2023-03-11T09:10:58;3.20;;;2.88;;
55292;SDS011;41157;53.560;10.098;2023-03-11T09:13:25;4.30;;;2.90;;
55292;SDS011;41157;53.560;10.098;2023-03-11T09:15:52;4.28;;;3.25;;
55292;SDS011;41157;53.560;10.098;2023-03-11T09:18:19;3.20;;;2.40;;
55292;SDS011;41157;53.560;10.098;2023-03-11T09:20:48;3.15;;;2.85;;
55292;SDS011;41157;53.560;10.098;2023-03-11T09:23:16;4.88;;;2.60;;
55292;SDS011;41157;53.560;10.098;2023-03-11T09:25:43;2.80;;;2.45;;
55292;SDS011;41157;53.560;10.098;2023-03-11T09:28:10;3.15;;;2.65;;
55292;SDS011;41157;53.560;10.098;2023-03-11T09:30:37;2.75;;;2.30;;
55292;SDS011;41157;53.560;10.098;2023-03-11T09:33:04;3.80;;;2.30;;
55292;SDS011;41157;53.560;10.098;2023-03-11T09:35:31;3.30;;;2.53;;
55292;SDS011;41157;53.560;10.098;2023-03-11T09:38:00;2.58;;;2.10;;
55292;SDS011;41157;53.560;10.098;2023-03-11T09:40:27;3.35;;;2.20;;
55292;SDS011;41157;53.560;10.098;2023-03-11T09:43:02;4.53;;;2.38;;
55292;SDS011;41157;53.560;10.098;2023-03-11T09:45:33;6.35;;;4.45;;
55292;SDS011;41157;53.560;10.098;2023-03-11T09:48:03;4.05;;;2.92;;
55292;SDS011;41157;53.560;10.098;2023-03-11T09:50:34;3.88;;;2.63;;
55292;SDS011;41157;53.560;10.098;2023-03-11T09:53:14;3.80;;;2.25;;
55292;SDS011;41157;53.560;10.098;2023-03-11T09:55:44;4.28;;;2.40;;
55292;SDS011;41157;53.560;10.098;2023-03-11T09:58:12;4.13;;;2.10;;
55292;SDS011;41157;53.560;10.098;2023-03-11T10:00:41;2.92;;;1.90;;
55292;SDS011;41157;53.560;10.098;2023-03-11T10:03:12;3.25;;;2.10;;
55292;SDS011;41157;53.560;10.098;2023-03-11T10:05:40;3.65;;;2.42;;
55292;SDS011;41157;53.560;10.098;2023-03-11T10:08:11;3.17;;;2.50;;
55292;SDS011;41157;53.560;10.098;2023-03-11T10:10:44;3.92;;;2.30;;
55292;SDS011;41157;53.560;10.098;2023-03-11T10:13:14;4.82;;;2.10;;
55292;SDS011;41157;53.560;10.098;2023-03-11T10:15:46;3.95;;;1.90;;
55292;SDS011;41157;53.560;10.098;2023-03-11T10:18:27;4.15;;;2.20;;
55292;SDS011;41157;53.560;10.098;2023-03-11T10:20:57;3.60;;;1.98;;
55292;SDS011;41157;53.560;10.098;2023-03-11T10:23:29;2.17;;;1.90;;
55292;SDS011;41157;53.560;10.098;2023-03-11T10:26:02;3.45;;;1.83;;
55292;SDS011;41157;53.560;10.098;2023-03-11T10:28:31;4.45;;;2.10;;
55292;SDS011;41157;53.560;10.098;2023-03-11T10:31:00;4.75;;;1.80;;
55292;SDS011;41157;53.560;10.098;2023-03-11T10:33:30;4.45;;;2.25;;
55292;SDS011;41157;53.560;10.098;2023-03-11T10:36:02;4.95;;;2.30;;
55292;SDS011;41157;53.560;10.098;2023-03-11T10:38:30;3.75;;;2.30;;
55292;SDS011;41157;53.560;10.098;2023-03-11T10:41:02;2.35;;;2.05;;
55292;SDS011;41157;53.560;10.098;2023-03-11T10:43:31;3.65;;;1.90;;
55292;SDS011;41157;53.560;10.098;2023-03-11T10:46:01;3.35;;;2.15;;
55292;SDS011;41157;53.560;10.098;2023-03-11T10:48:29;4.43;;;2.28;;
55292;SDS011;41157;53.560;10.098;2023-03-11T10:50:58;1.92;;;1.70;;
55292;SDS011;41157;53.560;10.098;2023-03-11T10:53:27;3.08;;;1.75;;
55292;SDS011;41157;53.560;10.098;2023-03-11T10:55:55;5.05;;;1.70;;
55292;SDS011;41157;53.560;10.098;2023-03-11T10:58:25;8.98;;;2.13;;
55292;SDS011;41157;53.560;10.098;2023-03-11T11:01:03;4.03;;;2.08;;
55292;SDS011;41157;53.560;10.098;2023-03-11T11:03:30;4.40;;;1.90;;
55292;SDS011;41157;53.560;10.098;2023-03-11T11:05:59;2.05;;;1.70;;
55292;SDS011;41157;53.560;10.098;2023-03-11T11:08:27;5.70;;;2.63;;
55292;SDS011;41157;53.560;10.098;2023-03-11T11:10:54;4.47;;;2.05;;
55292;SDS011;41157;53.560;10.098;2023-03-11T11:13:22;3.65;;;2.10;;
55292;SDS011;41157;53.560;10.098;2023-03-11T11:15:51;3.63;;;2.05;;
55292;SDS011;41157;53.560;10.098;2023-03-11T11:18:20;3.33;;;2.30;;
55292;SDS011;41157;53.560;10.098;2023-03-11T11:21:03;4.35;;;2.10;;
55292;SDS011;41157;53.560;10.098;2023-03-11T11:23:36;5.18;;;2.60;;
55292;SDS011;41157;53.560;10.098;2023-03-11T11:26:05;4.18;;;2.35;;
55292;SDS011;41157;53.560;10.098;2023-03-11T11:28:32;4.55;;;2.40;;
55292;SDS011;41157;53.560;10.098;2023-03-11T11:31:01;4.75;;;2.60;;
55292;SDS011;41157;53.560;10.098;2023-03-11T11:33:30;3.47;;;2.10;;
55292;SDS011;41157;53.560;10.098;2023-03-11T11:35:58;4.22;;;2.00;;
55292;SDS011;41157;53.560;10.098;2023-03-11T11:38:27;3.42;;;2.15;;
55292;SDS011;41157;53.560;10.098;2023-03-11T11:40:55;4.15;;;2.17;;
55292;SDS011;41157;53.560;10.098;2023-03-11T11:43:24;2.92;;;2.13;;
55292;SDS011;41157;53.560;10.098;2023-03-11T11:45:56;5.20;;;1.90;;
55292;SDS011;41157;53.560;10.098;2023-03-11T11:48:31;4.63;;;2.40;;
55292;SDS011;41157;53.560;10.098;2023-03-11T11:50:59;3.60;;;2.22;;
55292;SDS011;41157;53.560;10.098;2023-03-11T11:53:27;4.78;;;2.30;;
55292;SDS011;41157;53.560;10.098;2023-03-11T11:55:57;5.32;;;2.10;;
55292;SDS011;41157;53.560;10.098;2023-03-11T11:58:24;9.07;;;2.45;;
55292;SDS011;41157;53.560;10.098;2023-03-11T12:00:55;5.00;;;2.17;;
55292;SDS011;41157;53.560;10.098;2023-03-11T12:03:37;3.22;;;2.00;;
55292;SDS011;41157;53.560;10.098;2023-03-11T12:06:08;3.70;;;1.88;;
55292;SDS011;41157;53.560;10.098;2023-03-11T12:08:38;5.45;;;2.30;;
55292;SDS011;41157;53.560;10.098;2023-03-11T12:11:07;7.03;;;2.40;;
55292;SDS011;41157;53.560;10.098;2023-03-11T12:13:44;3.72;;;1.90;;
55292;SDS011;41157;53.560;10.098;2023-03-11T12:16:15;2.92;;;1.70;;
55292;SDS011;41157;53.560;10.098;2023-03-11T12:18:47;3.25;;;1.58;;
55292;SDS011;41157;53.560;10.098;2023-03-11T12:21:19;3.55;;;1.38;;
55292;SDS011;41157;53.560;10.098;2023-03-11T12:23:55;3.80;;;1.70;;
55292;SDS011;41157;53.560;10.098;2023-03-11T12:26:25;2.97;;;1.83;;
55292;SDS011;41157;53.560;10.098;2023-03-11T12:28:53;3.35;;;1.40;;
55292;SDS011;41157;53.560;10.098;2023-03-11T12:31:22;1.75;;;1.25;;
55292;SDS011;41157;53.560;10.098;2023-03-11T12:33:53;2.70;;;1.45;;
55292;SDS011;41157;53.560;10.098;2023-03-11T12:36:23;3.28;;;1.50;;
55292;SDS011;41157;53.560;10.098;2023-03-11T12:38:50;3.78;;;1.40;;
55292;SDS011;41157;53.560;10.098;2023-03-11T12:41:29;4.45;;;1.42;;
55292;SDS011;41157;53.560;10.098;2023-03-11T12:44:04;5.18;;;1.27;;
55292;SDS011;41157;53.560;10.098;2023-03-11T12:49:21;3.05;;;1.40;;
55292;SDS011;41157;53.560;10.098;2023-03-11T12:51:59;2.60;;;1.60;;
55292;SDS011;41157;53.560;10.098;2023-03-11T12:54:27;4.43;;;1.40;;
55292;SDS011;41157;53.560;10.098;2023-03-11T12:56:56;3.08;;;1.65;;
55292;SDS011;41157;53.560;10.098;2023-03-11T12:59:41;3.75;;;1.40;;
55292;SDS011;41157;53.560;10.098;2023-03-11T13:02:21;4.95;;;1.38;;
55292;SDS011;41157;53.560;10.098;2023-03-11T13:04:53;6.85;;;1.48;;
55292;SDS011;41157;53.560;10.098;2023-03-11T13:07:36;8.43;;;1.70;;
55292;SDS011;41157;53.560;10.098;2023-03-11T13:10:11;4.40;;;1.35;;
55292;SDS011;41157;53.560;10.098;2023-03-11T13:12:39;5.63;;;1.50;;
55292;SDS011;41157;53.560;10.098;2023-03-11T13:17:59;5.17;;;1.47;;
55292;SDS011;41157;53.560;10.098;2023-03-11T13:20:49;4.93;;;1.30;;
55292;SDS011;41157;53.560;10.098;2023-03-11T13:23:27;4.37;;;1.40;;
55292;SDS011;41157;53.560;10.098;2023-03-11T13:26:06;4.50;;;1.80;;
55292;SDS011;41157;53.560;10.098;2023-03-11T13:28:54;2.57;;;1.40;;
55292;SDS011;41157;53.560;10.098;2023-03-11T13:31:30;5.67;;;1.50;;
55292;SDS011;41157;53.560;10.098;2023-03-11T13:34:02;4.53;;;1.50;;
55292;SDS011;41157;53.560;10.098;2023-03-11T13:36:35;6.67;;;3.03;;
55292;SDS011;41157;53.560;10.098;2023-03-11T13:39:25;5.47;;;2.87;;
55292;SDS011;41157;53.560;10.098;2023-03-11T13:41:55;5.50;;;1.97;;
55292;SDS011;41157;53.560;10.098;2023-03-11T13:44:26;3.90;;;1.80;;
55292;SDS011;41157;53.560;10.098;2023-03-11T13:46:56;6.80;;;4.00;;
55292;SDS011;41157;53.560;10.098;2023-03-11T13:49:26;4.10;;;2.03;;
55292;SDS011;41157;53.560;10.098;2023-03-11T13:51:55;9.23;;;4.47;;
55292;SDS011;41157;53.560;10.098;2023-03-11T13:54:29;5.13;;;2.00;;
55292;SDS011;41157;53.560;10.098;2023-03-11T13:56:57;9.63;;;4.93;;
55292;SDS011;41157;53.560;10.098;2023-03-11T13:59:25;4.87;;;3.63;;
55292;SDS011;41157;53.560;10.098;2023-03-11T14:01:53;8.57;;;4.93;;
55292;SDS011;41157;53.560;10.098;2023-03-11T14:04:23;2.67;;;1.97;;
55292;SDS011;41157;53.560;10.098;2023-03-11T14:06:51;2.60;;;1.83;;
55292;SDS011;41157;53.560;10.098;2023-03-11T14:09:20;6.00;;;3.07;;
55292;SDS011;41157;53.560;10.098;2023-03-11T14:11:47;6.20;;;2.30;;
55292;SDS011;41157;53.560;10.098;2023-03-11T14:14:32;17.97;;;10.20;;
55292;SDS011;41157;53.560;10.098;2023-03-11T14:17:01;7.33;;;4.50;;
55292;SDS011;41157;53.560;10.098;2023-03-11T14:19:29;5.20;;;3.60;;
55292;SDS011;41157;53.560;10.098;2023-03-11T14:21:56;11.47;;;6.73;;
55292;SDS011;41157;53.560;10.098;2023-03-11T14:24:26;6.83;;;2.53;;
55292;SDS011;41157;53.560;10.098;2023-03-11T14:26:54;12.93;;;8.83;;
55292;SDS011;41157;53.560;10.098;2023-03-11T14:29:24;5.77;;;2.33;;
55292;SDS011;41157;53.560;10.098;2023-03-11T14:31:54;3.40;;;1.30;;
55292;SDS011;41157;53.560;10.098;2023-03-11T14:34:22;3.63;;;1.33;;
55292;SDS011;41157;53.560;10.098;2023-03-11T14:36:52;3.43;;;1.37;;
55292;SDS011;41157;53.560;10.098;2023-03-11T14:39:21;2.97;;;1.40;;
55292;SDS011;41157;53.560;10.098;2023-03-11T14:41:51;1.40;;;1.00;;
55292;SDS011;41157;53.560;10.098;2023-03-11T14:44:19;2.67;;;1.20;;
55292;SDS011;41157;53.560;10.098;2023-03-11T14:46:47;3.43;;;1.00;;